sensor_id;sensor_type;location;lat;lon;timestamp;temperature;humidity
61591;DHT22;57639;52.410;-1.966;2023-07-20T00:01:17;19.20;61.50
61591;DHT22;57639;52.410;-1.966;2023-07-20T00:04:26;19.20;61.40
61591;DHT22;57639;52.410;-1.966;2023-07-20T00:07:33;19.20;61.60
61591;DHT22;57639;52.410;-1.966;2023-07-20T00:10:40;19.20;61.50
61591;DHT22;57639;52.410;-1.966;2023-07-20T00:13:46;19.20;61.20
61591;DHT22;57639;52.410;-1.966;2023-07-20T00:16:54;19.20;61.40
61591;DHT22;57639;52.410;-1.966;2023-07-20T00:20:05;19.20;62.00
61591;DHT22;57639;52.410;-1.966;2023-07-20T00:23:11;19.10;61.80
61591;DHT22;57639;52.410;-1.966;2023-07-20T00:26:17;19.10;61.50
61591;DHT22;57639;52.410;-1.966;2023-07-20T00:29:24;19.10;61.90
61591;DHT22;57639;52.410;-1.966;2023-07-20T00:32:30;19.10;61.60
61591;DHT22;57639;52.410;-1.966;2023-07-20T00:35:39;19.10;61.60
61591;DHT22;57639;52.410;-1.966;2023-07-20T00:38:45;19.10;62.00
61591;DHT22;57639;52.410;-1.966;2023-07-20T00:41:52;19.10;61.80
61591;DHT22;57639;52.410;-1.966;2023-07-20T00:44:58;19.10;61.70
61591;DHT22;57639;52.410;-1.966;2023-07-20T00:48:05;19.10;61.60
61591;DHT22;57639;52.410;-1.966;2023-07-20T00:51:15;19.10;61.40
61591;DHT22;57639;52.410;-1.966;2023-07-20T00:54:21;19.10;61.20
61591;DHT22;57639;52.410;-1.966;2023-07-20T00:57:28;19.10;61.00
61591;DHT22;57639;52.410;-1.966;2023-07-20T01:00:34;19.10;61.10
61591;DHT22;57639;52.410;-1.966;2023-07-20T01:03:40;19.10;61.10
61591;DHT22;57639;52.410;-1.966;2023-07-20T01:06:56;19.10;61.20
61591;DHT22;57639;52.410;-1.966;2023-07-20T01:10:10;19.00;61.20
61591;DHT22;57639;52.410;-1.966;2023-07-20T01:13:18;19.00;61.20
61591;DHT22;57639;52.410;-1.966;2023-07-20T01:16:27;19.00;61.00
61591;DHT22;57639;52.410;-1.966;2023-07-20T01:19:33;19.00;61.00
61591;DHT22;57639;52.410;-1.966;2023-07-20T01:22:55;19.00;61.30
61591;DHT22;57639;52.410;-1.966;2023-07-20T01:30:02;19.00;61.40
61591;DHT22;57639;52.410;-1.966;2023-07-20T01:33:13;18.90;61.10
61591;DHT22;57639;52.410;-1.966;2023-07-20T01:36:22;18.90;60.80
61591;DHT22;57639;52.410;-1.966;2023-07-20T01:39:30;18.90;61.10
61591;DHT22;57639;52.410;-1.966;2023-07-20T01:42:37;18.90;60.80
61591;DHT22;57639;52.410;-1.966;2023-07-20T01:45:43;18.90;60.60
61591;DHT22;57639;52.410;-1.966;2023-07-20T01:48:52;18.90;60.70
61591;DHT22;57639;52.410;-1.966;2023-07-20T01:51:58;18.90;60.80
61591;DHT22;57639;52.410;-1.966;2023-07-20T01:55:05;18.90;60.50
61591;DHT22;57639;52.410;-1.966;2023-07-20T01:58:12;18.90;60.50
61591;DHT22;57639;52.410;-1.966;2023-07-20T02:01:18;18.90;60.20
61591;DHT22;57639;52.410;-1.966;2023-07-20T02:04:27;18.90;60.30
61591;DHT22;57639;52.410;-1.966;2023-07-20T02:07:33;18.90;60.50
61591;DHT22;57639;52.410;-1.966;2023-07-20T02:10:39;19.00;60.20
61591;DHT22;57639;52.410;-1.966;2023-07-20T02:13:46;19.00;59.80
61591;DHT22;57639;52.410;-1.966;2023-07-20T02:16:52;19.00;59.70
61591;DHT22;57639;52.410;-1.966;2023-07-20T02:20:04;19.00;59.50
61591;DHT22;57639;52.410;-1.966;2023-07-20T02:23:13;19.00;59.20
61591;DHT22;57639;52.410;-1.966;2023-07-20T02:26:21;19.00;59.00
61591;DHT22;57639;52.410;-1.966;2023-07-20T02:29:28;19.00;59.20
61591;DHT22;57639;52.410;-1.966;2023-07-20T02:32:35;19.00;59.00
61591;DHT22;57639;52.410;-1.966;2023-07-20T02:35:44;19.00;59.20
61591;DHT22;57639;52.410;-1.966;2023-07-20T02:38:50;19.00;59.40
61591;DHT22;57639;52.410;-1.966;2023-07-20T02:41:56;19.00;59.50
61591;DHT22;57639;52.410;-1.966;2023-07-20T02:45:03;19.00;59.30
61591;DHT22;57639;52.410;-1.966;2023-07-20T02:48:10;19.00;59.10
61591;DHT22;57639;52.410;-1.966;2023-07-20T02:51:20;18.90;59.70
61591;DHT22;57639;52.410;-1.966;2023-07-20T02:54:26;18.90;59.10
61591;DHT22;57639;52.410;-1.966;2023-07-20T02:57:33;18.90;59.80
61591;DHT22;57639;52.410;-1.966;2023-07-20T03:00:39;18.90;60.00
61591;DHT22;57639;52.410;-1.966;2023-07-20T03:03:45;18.90;59.20
61591;DHT22;57639;52.410;-1.966;2023-07-20T03:06:55;18.90;60.30
61591;DHT22;57639;52.410;-1.966;2023-07-20T03:13:12;18.90;59.40
61591;DHT22;57639;52.410;-1.966;2023-07-20T03:16:19;18.90;59.20
61591;DHT22;57639;52.410;-1.966;2023-07-20T03:19:26;18.90;59.70
61591;DHT22;57639;52.410;-1.966;2023-07-20T03:22:35;18.90;59.60
61591;DHT22;57639;52.410;-1.966;2023-07-20T03:25:41;18.90;59.20
61591;DHT22;57639;52.410;-1.966;2023-07-20T03:28:47;18.80;58.70
61591;DHT22;57639;52.410;-1.966;2023-07-20T03:31:53;18.90;58.70
61591;DHT22;57639;52.410;-1.966;2023-07-20T03:35:00;18.80;58.60
61591;DHT22;57639;52.410;-1.966;2023-07-20T03:38:09;18.80;58.80
61591;DHT22;57639;52.410;-1.966;2023-07-20T03:41:15;18.90;59.00
61591;DHT22;57639;52.410;-1.966;2023-07-20T03:44:22;18.80;58.30
61591;DHT22;57639;52.410;-1.966;2023-07-20T03:47:29;18.80;58.50
61591;DHT22;57639;52.410;-1.966;2023-07-20T03:50:35;18.80;58.40
61591;DHT22;57639;52.410;-1.966;2023-07-20T03:53:44;18.80;58.40
61591;DHT22;57639;52.410;-1.966;2023-07-20T03:56:50;18.80;58.50
61591;DHT22;57639;52.410;-1.966;2023-07-20T03:59:56;18.80;58.50
61591;DHT22;57639;52.410;-1.966;2023-07-20T04:03:05;18.80;58.40
61591;DHT22;57639;52.410;-1.966;2023-07-20T04:06:11;18.80;58.40
61591;DHT22;57639;52.410;-1.966;2023-07-20T04:09:20;18.70;58.50
61591;DHT22;57639;52.410;-1.966;2023-07-20T04:12:26;18.70;58.70
61591;DHT22;57639;52.410;-1.966;2023-07-20T04:15:35;18.70;58.90
61591;DHT22;57639;52.410;-1.966;2023-07-20T04:18:41;18.70;58.30
61591;DHT22;57639;52.410;-1.966;2023-07-20T04:21:49;18.70;58.60
61591;DHT22;57639;52.410;-1.966;2023-07-20T04:24:58;18.70;58.70
61591;DHT22;57639;52.410;-1.966;2023-07-20T04:28:05;18.70;58.80
61591;DHT22;57639;52.410;-1.966;2023-07-20T04:31:23;18.60;58.20
61591;DHT22;57639;52.410;-1.966;2023-07-20T04:34:31;18.60;58.60
61591;DHT22;57639;52.410;-1.966;2023-07-20T04:37:42;18.60;58.10
61591;DHT22;57639;52.410;-1.966;2023-07-20T04:40:52;18.60;58.60
61591;DHT22;57639;52.410;-1.966;2023-07-20T04:43:58;18.60;58.70
61591;DHT22;57639;52.410;-1.966;2023-07-20T04:47:08;18.60;58.30
61591;DHT22;57639;52.410;-1.966;2023-07-20T04:50:15;18.60;58.00
61591;DHT22;57639;52.410;-1.966;2023-07-20T04:53:23;18.60;58.10
61591;DHT22;57639;52.410;-1.966;2023-07-20T04:56:34;18.60;58.50
61591;DHT22;57639;52.410;-1.966;2023-07-20T04:59:41;18.50;58.40
61591;DHT22;57639;52.410;-1.966;2023-07-20T05:02:49;18.50;58.10
61591;DHT22;57639;52.410;-1.966;2023-07-20T05:05:57;18.60;58.20
61591;DHT22;57639;52.410;-1.966;2023-07-20T05:09:03;18.60;58.20
61591;DHT22;57639;52.410;-1.966;2023-07-20T05:12:13;18.60;58.00
61591;DHT22;57639;52.410;-1.966;2023-07-20T05:15:19;18.60;58.20
61591;DHT22;57639;52.410;-1.966;2023-07-20T05:18:25;18.60;58.10
61591;DHT22;57639;52.410;-1.966;2023-07-20T05:21:32;18.60;58.10
61591;DHT22;57639;52.410;-1.966;2023-07-20T05:24:38;18.60;58.10
61591;DHT22;57639;52.410;-1.966;2023-07-20T05:27:47;18.60;58.10
61591;DHT22;57639;52.410;-1.966;2023-07-20T05:30:53;18.60;58.20
61591;DHT22;57639;52.410;-1.966;2023-07-20T05:34:02;18.60;58.10
61591;DHT22;57639;52.410;-1.966;2023-07-20T05:37:08;18.50;58.20
61591;DHT22;57639;52.410;-1.966;2023-07-20T05:40:15;18.60;58.30
61591;DHT22;57639;52.410;-1.966;2023-07-20T05:43:26;18.50;58.50
61591;DHT22;57639;52.410;-1.966;2023-07-20T05:46:33;18.50;58.50
61591;DHT22;57639;52.410;-1.966;2023-07-20T05:49:39;18.50;58.70
61591;DHT22;57639;52.410;-1.966;2023-07-20T05:52:45;18.50;58.70
61591;DHT22;57639;52.410;-1.966;2023-07-20T05:55:52;18.50;58.40
61591;DHT22;57639;52.410;-1.966;2023-07-20T05:59:01;18.50;58.40
61591;DHT22;57639;52.410;-1.966;2023-07-20T06:02:07;18.50;58.60
61591;DHT22;57639;52.410;-1.966;2023-07-20T06:05:14;18.50;58.80
61591;DHT22;57639;52.410;-1.966;2023-07-20T06:08:20;18.50;58.80
61591;DHT22;57639;52.410;-1.966;2023-07-20T06:11:26;18.50;58.70
61591;DHT22;57639;52.410;-1.966;2023-07-20T06:14:36;18.40;58.80
61591;DHT22;57639;52.410;-1.966;2023-07-20T06:17:43;18.40;58.90
61591;DHT22;57639;52.410;-1.966;2023-07-20T06:20:49;18.40;59.00
61591;DHT22;57639;52.410;-1.966;2023-07-20T06:23:56;18.50;59.10
61591;DHT22;57639;52.410;-1.966;2023-07-20T06:27:03;18.50;59.10
61591;DHT22;57639;52.410;-1.966;2023-07-20T06:30:13;18.40;59.30
61591;DHT22;57639;52.410;-1.966;2023-07-20T06:33:19;18.50;59.40
61591;DHT22;57639;52.410;-1.966;2023-07-20T06:36:26;18.50;59.50
61591;DHT22;57639;52.410;-1.966;2023-07-20T06:39:32;18.50;59.50
61591;DHT22;57639;52.410;-1.966;2023-07-20T06:42:38;18.50;59.60
61591;DHT22;57639;52.410;-1.966;2023-07-20T06:45:51;18.50;59.60
61591;DHT22;57639;52.410;-1.966;2023-07-20T06:48:57;18.50;59.70
61591;DHT22;57639;52.410;-1.966;2023-07-20T06:52:04;18.50;59.60
61591;DHT22;57639;52.410;-1.966;2023-07-20T06:55:11;18.50;59.60
61591;DHT22;57639;52.410;-1.966;2023-07-20T06:58:17;18.60;59.60
61591;DHT22;57639;52.410;-1.966;2023-07-20T07:01:27;18.50;60.00
61591;DHT22;57639;52.410;-1.966;2023-07-20T07:04:33;18.50;60.30
61591;DHT22;57639;52.410;-1.966;2023-07-20T07:07:39;18.60;60.60
61591;DHT22;57639;52.410;-1.966;2023-07-20T07:10:46;18.50;60.80
61591;DHT22;57639;52.410;-1.966;2023-07-20T07:13:52;18.60;61.10
61591;DHT22;57639;52.410;-1.966;2023-07-20T07:17:01;18.60;61.60
61591;DHT22;57639;52.410;-1.966;2023-07-20T07:20:08;18.60;61.80
61591;DHT22;57639;52.410;-1.966;2023-07-20T07:23:15;18.60;62.10
61591;DHT22;57639;52.410;-1.966;2023-07-20T07:26:21;18.60;62.20
61591;DHT22;57639;52.410;-1.966;2023-07-20T07:29:28;18.60;62.40
61591;DHT22;57639;52.410;-1.966;2023-07-20T07:32:37;18.60;62.60
61591;DHT22;57639;52.410;-1.966;2023-07-20T07:35:45;18.60;62.60
61591;DHT22;57639;52.410;-1.966;2023-07-20T07:38:51;18.60;62.70
61591;DHT22;57639;52.410;-1.966;2023-07-20T07:41:58;18.60;62.80
61591;DHT22;57639;52.410;-1.966;2023-07-20T07:45:05;18.60;62.70
61591;DHT22;57639;52.410;-1.966;2023-07-20T07:48:14;18.60;62.80
61591;DHT22;57639;52.410;-1.966;2023-07-20T07:51:20;18.60;62.40
61591;DHT22;57639;52.410;-1.966;2023-07-20T07:54:27;18.70;62.30
61591;DHT22;57639;52.410;-1.966;2023-07-20T07:57:33;18.70;62.20
61591;DHT22;57639;52.410;-1.966;2023-07-20T08:00:39;18.70;62.10
61591;DHT22;57639;52.410;-1.966;2023-07-20T08:03:49;18.70;62.20
61591;DHT22;57639;52.410;-1.966;2023-07-20T08:06:55;18.70;62.30
61591;DHT22;57639;52.410;-1.966;2023-07-20T08:10:02;18.70;62.30
61591;DHT22;57639;52.410;-1.966;2023-07-20T08:13:08;18.70;62.30
61591;DHT22;57639;52.410;-1.966;2023-07-20T08:16:15;18.70;62.20
61591;DHT22;57639;52.410;-1.966;2023-07-20T08:19:24;18.80;62.10
61591;DHT22;57639;52.410;-1.966;2023-07-20T08:22:30;18.80;62.10
61591;DHT22;57639;52.410;-1.966;2023-07-20T08:25:37;18.80;62.00
61591;DHT22;57639;52.410;-1.966;2023-07-20T08:28:46;18.80;62.00
61591;DHT22;57639;52.410;-1.966;2023-07-20T08:31:53;18.80;62.00
61591;DHT22;57639;52.410;-1.966;2023-07-20T08:35:02;18.80;62.00
61591;DHT22;57639;52.410;-1.966;2023-07-20T08:38:09;18.80;61.90
61591;DHT22;57639;52.410;-1.966;2023-07-20T08:41:15;18.80;61.90
61591;DHT22;57639;52.410;-1.966;2023-07-20T08:44:24;18.80;61.90
61591;DHT22;57639;52.410;-1.966;2023-07-20T08:47:31;18.80;61.90
61591;DHT22;57639;52.410;-1.966;2023-07-20T08:50:41;18.90;61.90
61591;DHT22;57639;52.410;-1.966;2023-07-20T08:53:50;18.90;61.90
61591;DHT22;57639;52.410;-1.966;2023-07-20T08:56:57;18.90;61.80
61591;DHT22;57639;52.410;-1.966;2023-07-20T09:00:04;18.90;61.80
61591;DHT22;57639;52.410;-1.966;2023-07-20T09:03:14;18.90;61.70
61591;DHT22;57639;52.410;-1.966;2023-07-20T09:06:25;18.80;61.70
61591;DHT22;57639;52.410;-1.966;2023-07-20T09:09:32;18.90;61.60
61591;DHT22;57639;52.410;-1.966;2023-07-20T09:12:39;18.90;61.60
61591;DHT22;57639;52.410;-1.966;2023-07-20T09:15:53;18.80;61.20
61591;DHT22;57639;52.410;-1.966;2023-07-20T09:19:01;18.80;61.10
61591;DHT22;57639;52.410;-1.966;2023-07-20T09:22:10;18.90;61.20
61591;DHT22;57639;52.410;-1.966;2023-07-20T09:25:18;18.80;61.20
61591;DHT22;57639;52.410;-1.966;2023-07-20T09:28:25;18.90;61.00
61591;DHT22;57639;52.410;-1.966;2023-07-20T09:31:32;18.90;60.90
61591;DHT22;57639;52.410;-1.966;2023-07-20T09:34:38;18.90;61.00
61591;DHT22;57639;52.410;-1.966;2023-07-20T09:37:52;18.90;61.00
61591;DHT22;57639;52.410;-1.966;2023-07-20T09:40:59;18.90;61.20
61591;DHT22;57639;52.410;-1.966;2023-07-20T09:44:05;18.90;61.10
61591;DHT22;57639;52.410;-1.966;2023-07-20T09:47:13;19.00;60.90
61591;DHT22;57639;52.410;-1.966;2023-07-20T09:50:27;19.00;60.90
61591;DHT22;57639;52.410;-1.966;2023-07-20T09:53:36;19.00;60.90
61591;DHT22;57639;52.410;-1.966;2023-07-20T09:56:43;19.00;60.80
61591;DHT22;57639;52.410;-1.966;2023-07-20T09:59:50;19.00;60.80
61591;DHT22;57639;52.410;-1.966;2023-07-20T10:02:56;19.00;60.80
61591;DHT22;57639;52.410;-1.966;2023-07-20T10:06:07;19.00;60.70
61591;DHT22;57639;52.410;-1.966;2023-07-20T10:09:17;19.00;60.80
61591;DHT22;57639;52.410;-1.966;2023-07-20T10:12:25;19.00;60.80
61591;DHT22;57639;52.410;-1.966;2023-07-20T10:15:37;19.00;60.80
61591;DHT22;57639;52.410;-1.966;2023-07-20T10:18:51;19.00;60.80
61591;DHT22;57639;52.410;-1.966;2023-07-20T10:22:06;19.00;60.80
61591;DHT22;57639;52.410;-1.966;2023-07-20T10:25:16;19.00;60.90
61591;DHT22;57639;52.410;-1.966;2023-07-20T10:28:24;19.00;60.90
61591;DHT22;57639;52.410;-1.966;2023-07-20T10:31:31;19.00;61.00
61591;DHT22;57639;52.410;-1.966;2023-07-20T10:34:38;19.00;61.00
61591;DHT22;57639;52.410;-1.966;2023-07-20T10:38:00;19.00;61.00
61591;DHT22;57639;52.410;-1.966;2023-07-20T10:41:19;19.00;61.00
61591;DHT22;57639;52.410;-1.966;2023-07-20T10:44:27;19.10;61.10
61591;DHT22;57639;52.410;-1.966;2023-07-20T10:47:45;19.10;61.00
61591;DHT22;57639;52.410;-1.966;2023-07-20T10:51:14;19.10;61.00
61591;DHT22;57639;52.410;-1.966;2023-07-20T10:54:46;19.10;61.00
61591;DHT22;57639;52.410;-1.966;2023-07-20T10:58:12;19.10;61.00
61591;DHT22;57639;52.410;-1.966;2023-07-20T11:01:19;19.10;61.00
61591;DHT22;57639;52.410;-1.966;2023-07-20T11:04:38;19.10;61.00
61591;DHT22;57639;52.410;-1.966;2023-07-20T11:07:44;19.10;60.90
61591;DHT22;57639;52.410;-1.966;2023-07-20T11:11:24;19.10;60.90
61591;DHT22;57639;52.410;-1.966;2023-07-20T11:14:33;19.10;61.00
61591;DHT22;57639;52.410;-1.966;2023-07-20T11:17:39;19.10;61.00
61591;DHT22;57639;52.410;-1.966;2023-07-20T11:20:50;19.10;61.00
61591;DHT22;57639;52.410;-1.966;2023-07-20T11:23:57;19.10;61.00
61591;DHT22;57639;52.410;-1.966;2023-07-20T11:27:04;19.10;61.00
61591;DHT22;57639;52.410;-1.966;2023-07-20T11:30:18;19.20;61.00
61591;DHT22;57639;52.410;-1.966;2023-07-20T11:33:25;19.20;61.00
61591;DHT22;57639;52.410;-1.966;2023-07-20T11:36:33;19.20;61.10
61591;DHT22;57639;52.410;-1.966;2023-07-20T11:39:39;19.20;61.10
61591;DHT22;57639;52.410;-1.966;2023-07-20T11:42:46;19.10;61.20
61591;DHT22;57639;52.410;-1.966;2023-07-20T11:45:56;19.20;61.20
61591;DHT22;57639;52.410;-1.966;2023-07-20T11:49:03;19.20;61.20
61591;DHT22;57639;52.410;-1.966;2023-07-20T11:52:11;19.10;61.20
61591;DHT22;57639;52.410;-1.966;2023-07-20T11:55:19;19.20;61.20
61591;DHT22;57639;52.410;-1.966;2023-07-20T11:58:28;19.20;61.20
61591;DHT22;57639;52.410;-1.966;2023-07-20T12:01:37;19.20;61.20
61591;DHT22;57639;52.410;-1.966;2023-07-20T12:04:43;19.20;61.30
61591;DHT22;57639;52.410;-1.966;2023-07-20T12:07:50;19.20;61.30
61591;DHT22;57639;52.410;-1.966;2023-07-20T12:10:56;19.20;61.40
61591;DHT22;57639;52.410;-1.966;2023-07-20T12:14:03;19.20;61.40
61591;DHT22;57639;52.410;-1.966;2023-07-20T12:17:13;19.20;61.40
61591;DHT22;57639;52.410;-1.966;2023-07-20T12:20:27;19.20;61.50
61591;DHT22;57639;52.410;-1.966;2023-07-20T12:23:38;19.20;61.50
61591;DHT22;57639;52.410;-1.966;2023-07-20T12:26:45;19.20;61.40
61591;DHT22;57639;52.410;-1.966;2023-07-20T12:29:51;19.30;61.30
61591;DHT22;57639;52.410;-1.966;2023-07-20T12:33:01;19.30;61.30
61591;DHT22;57639;52.410;-1.966;2023-07-20T12:36:09;19.30;61.20
61591;DHT22;57639;52.410;-1.966;2023-07-20T12:39:15;19.30;61.30
61591;DHT22;57639;52.410;-1.966;2023-07-20T12:42:22;19.30;61.30
61591;DHT22;57639;52.410;-1.966;2023-07-20T12:45:28;19.30;61.30
61591;DHT22;57639;52.410;-1.966;2023-07-20T12:48:38;19.30;61.30
61591;DHT22;57639;52.410;-1.966;2023-07-20T12:51:45;19.30;61.30
61591;DHT22;57639;52.410;-1.966;2023-07-20T12:54:51;19.30;61.30
61591;DHT22;57639;52.410;-1.966;2023-07-20T12:57:57;19.40;61.30
61591;DHT22;57639;52.410;-1.966;2023-07-20T13:01:03;19.30;61.30
61591;DHT22;57639;52.410;-1.966;2023-07-20T13:04:12;19.30;61.20
61591;DHT22;57639;52.410;-1.966;2023-07-20T13:07:29;19.30;61.30
61591;DHT22;57639;52.410;-1.966;2023-07-20T13:10:35;19.30;61.20
61591;DHT22;57639;52.410;-1.966;2023-07-20T13:13:42;19.30;61.20
61591;DHT22;57639;52.410;-1.966;2023-07-20T13:16:48;19.30;61.20
61591;DHT22;57639;52.410;-1.966;2023-07-20T13:19:57;19.30;61.20
61591;DHT22;57639;52.410;-1.966;2023-07-20T13:23:04;19.30;61.30
61591;DHT22;57639;52.410;-1.966;2023-07-20T13:26:10;19.30;61.30
61591;DHT22;57639;52.410;-1.966;2023-07-20T13:29:17;19.30;61.30
61591;DHT22;57639;52.410;-1.966;2023-07-20T13:32:23;19.20;61.30
61591;DHT22;57639;52.410;-1.966;2023-07-20T13:35:32;19.30;61.30
61591;DHT22;57639;52.410;-1.966;2023-07-20T13:38:38;19.30;61.30
61591;DHT22;57639;52.410;-1.966;2023-07-20T13:41:45;19.30;61.30
61591;DHT22;57639;52.410;-1.966;2023-07-20T13:44:51;19.20;61.30
61591;DHT22;57639;52.410;-1.966;2023-07-20T13:47:57;19.20;61.30
61591;DHT22;57639;52.410;-1.966;2023-07-20T13:51:06;19.20;61.20
61591;DHT22;57639;52.410;-1.966;2023-07-20T13:54:13;19.20;61.20
61591;DHT22;57639;52.410;-1.966;2023-07-20T13:57:19;19.30;61.10
61591;DHT22;57639;52.410;-1.966;2023-07-20T14:00:25;19.20;61.10
61591;DHT22;57639;52.410;-1.966;2023-07-20T14:03:35;19.20;61.10
61591;DHT22;57639;52.410;-1.966;2023-07-20T14:06:46;19.20;61.10
61591;DHT22;57639;52.410;-1.966;2023-07-20T14:09:53;19.30;61.10
61591;DHT22;57639;52.410;-1.966;2023-07-20T14:12:59;19.30;61.00
61591;DHT22;57639;52.410;-1.966;2023-07-20T14:16:06;19.30;61.20
61591;DHT22;57639;52.410;-1.966;2023-07-20T14:19:12;19.30;61.20
61591;DHT22;57639;52.410;-1.966;2023-07-20T14:22:21;19.30;61.20
61591;DHT22;57639;52.410;-1.966;2023-07-20T14:25:28;19.30;61.20
61591;DHT22;57639;52.410;-1.966;2023-07-20T14:28:35;19.30;61.30
61591;DHT22;57639;52.410;-1.966;2023-07-20T14:31:42;19.20;61.30
61591;DHT22;57639;52.410;-1.966;2023-07-20T14:34:49;19.30;61.40
61591;DHT22;57639;52.410;-1.966;2023-07-20T14:37:59;19.30;61.50
61591;DHT22;57639;52.410;-1.966;2023-07-20T14:41:05;19.30;61.50
61591;DHT22;57639;52.410;-1.966;2023-07-20T14:44:12;19.30;61.50
61591;DHT22;57639;52.410;-1.966;2023-07-20T14:47:18;19.30;61.60
61591;DHT22;57639;52.410;-1.966;2023-07-20T14:50:24;19.30;61.50
61591;DHT22;57639;52.410;-1.966;2023-07-20T14:53:33;19.30;61.50
61591;DHT22;57639;52.410;-1.966;2023-07-20T14:56:46;19.30;61.50
61591;DHT22;57639;52.410;-1.966;2023-07-20T14:59:55;19.30;61.50
61591;DHT22;57639;52.410;-1.966;2023-07-20T15:03:03;19.30;61.60
61591;DHT22;57639;52.410;-1.966;2023-07-20T15:06:10;19.30;61.60
61591;DHT22;57639;52.410;-1.966;2023-07-20T15:09:20;19.30;61.50
61591;DHT22;57639;52.410;-1.966;2023-07-20T15:12:26;19.30;61.60
61591;DHT22;57639;52.410;-1.966;2023-07-20T15:15:32;19.30;61.70
61591;DHT22;57639;52.410;-1.966;2023-07-20T15:18:38;19.30;61.70
61591;DHT22;57639;52.410;-1.966;2023-07-20T15:21:45;19.30;61.70
61591;DHT22;57639;52.410;-1.966;2023-07-20T15:25:06;19.30;61.40
61591;DHT22;57639;52.410;-1.966;2023-07-20T15:28:13;19.30;61.40
61591;DHT22;57639;52.410;-1.966;2023-07-20T15:31:19;19.30;61.30
61591;DHT22;57639;52.410;-1.966;2023-07-20T15:34:26;19.40;61.30
61591;DHT22;57639;52.410;-1.966;2023-07-20T15:37:34;19.30;61.10
61591;DHT22;57639;52.410;-1.966;2023-07-20T15:40:46;19.30;61.10
61591;DHT22;57639;52.410;-1.966;2023-07-20T15:43:53;19.40;61.00
61591;DHT22;57639;52.410;-1.966;2023-07-20T15:46:59;19.40;60.90
61591;DHT22;57639;52.410;-1.966;2023-07-20T15:50:06;19.40;61.10
61591;DHT22;57639;52.410;-1.966;2023-07-20T15:53:12;19.40;61.10
61591;DHT22;57639;52.410;-1.966;2023-07-20T15:56:22;19.40;61.20
61591;DHT22;57639;52.410;-1.966;2023-07-20T15:59:28;19.40;61.00
61591;DHT22;57639;52.410;-1.966;2023-07-20T16:02:51;19.40;61.00
61591;DHT22;57639;52.410;-1.966;2023-07-20T16:05:59;19.40;61.00
61591;DHT22;57639;52.410;-1.966;2023-07-20T16:09:07;19.40;61.10
61591;DHT22;57639;52.410;-1.966;2023-07-20T16:12:16;19.40;61.20
61591;DHT22;57639;52.410;-1.966;2023-07-20T16:15:28;19.40;61.10
61591;DHT22;57639;52.410;-1.966;2023-07-20T16:18:35;19.40;61.20
61591;DHT22;57639;52.410;-1.966;2023-07-20T16:21:41;19.40;61.00
61591;DHT22;57639;52.410;-1.966;2023-07-20T16:24:47;19.40;61.00
61591;DHT22;57639;52.410;-1.966;2023-07-20T16:27:57;19.30;61.30
61591;DHT22;57639;52.410;-1.966;2023-07-20T16:31:08;19.30;61.60
61591;DHT22;57639;52.410;-1.966;2023-07-20T16:34:15;19.30;61.80
61591;DHT22;57639;52.410;-1.966;2023-07-20T16:37:21;19.20;61.90
61591;DHT22;57639;52.410;-1.966;2023-07-20T16:40:27;19.30;62.00
61591;DHT22;57639;52.410;-1.966;2023-07-20T16:43:37;19.30;62.00
61591;DHT22;57639;52.410;-1.966;2023-07-20T16:46:44;19.30;61.90
61591;DHT22;57639;52.410;-1.966;2023-07-20T16:49:51;19.30;61.70
61591;DHT22;57639;52.410;-1.966;2023-07-20T16:52:57;19.30;61.50
61591;DHT22;57639;52.410;-1.966;2023-07-20T16:56:04;19.30;61.70
61591;DHT22;57639;52.410;-1.966;2023-07-20T16:59:13;19.40;61.80
61591;DHT22;57639;52.410;-1.966;2023-07-20T17:02:20;19.40;61.80
61591;DHT22;57639;52.410;-1.966;2023-07-20T17:05:27;19.30;61.90
61591;DHT22;57639;52.410;-1.966;2023-07-20T17:08:33;19.30;61.90
61591;DHT22;57639;52.410;-1.966;2023-07-20T17:11:40;19.40;61.90
61591;DHT22;57639;52.410;-1.966;2023-07-20T17:14:49;19.30;61.90
61591;DHT22;57639;52.410;-1.966;2023-07-20T17:17:55;19.40;61.90
61591;DHT22;57639;52.410;-1.966;2023-07-20T17:21:02;19.40;61.90
61591;DHT22;57639;52.410;-1.966;2023-07-20T17:24:08;19.40;62.00
61591;DHT22;57639;52.410;-1.966;2023-07-20T17:27:15;19.40;62.00
61591;DHT22;57639;52.410;-1.966;2023-07-20T17:30:24;19.40;61.90
61591;DHT22;57639;52.410;-1.966;2023-07-20T17:33:31;19.40;61.90
61591;DHT22;57639;52.410;-1.966;2023-07-20T17:36:37;19.30;62.00
61591;DHT22;57639;52.410;-1.966;2023-07-20T17:39:44;19.40;61.90
61591;DHT22;57639;52.410;-1.966;2023-07-20T17:42:50;19.40;61.80
61591;DHT22;57639;52.410;-1.966;2023-07-20T17:46:00;19.40;62.20
61591;DHT22;57639;52.410;-1.966;2023-07-20T17:49:06;19.40;62.50
61591;DHT22;57639;52.410;-1.966;2023-07-20T17:52:12;19.50;62.70
61591;DHT22;57639;52.410;-1.966;2023-07-20T17:55:19;19.50;63.20
61591;DHT22;57639;52.410;-1.966;2023-07-20T17:58:41;19.50;63.40
61591;DHT22;57639;52.410;-1.966;2023-07-20T18:01:50;19.50;63.70
61591;DHT22;57639;52.410;-1.966;2023-07-20T18:04:57;19.60;65.00
61591;DHT22;57639;52.410;-1.966;2023-07-20T18:08:04;19.60;64.90
61591;DHT22;57639;52.410;-1.966;2023-07-20T18:11:11;19.50;64.60
61591;DHT22;57639;52.410;-1.966;2023-07-20T18:14:22;19.50;64.50
61591;DHT22;57639;52.410;-1.966;2023-07-20T18:17:32;19.50;64.30
61591;DHT22;57639;52.410;-1.966;2023-07-20T18:20:38;19.50;64.00
61591;DHT22;57639;52.410;-1.966;2023-07-20T18:23:44;19.50;63.80
61591;DHT22;57639;52.410;-1.966;2023-07-20T18:26:50;19.50;63.40
61591;DHT22;57639;52.410;-1.966;2023-07-20T18:29:57;19.50;63.00
61591;DHT22;57639;52.410;-1.966;2023-07-20T18:33:06;19.50;63.00
61591;DHT22;57639;52.410;-1.966;2023-07-20T18:36:12;19.50;62.90
61591;DHT22;57639;52.410;-1.966;2023-07-20T18:39:19;19.50;62.90
61591;DHT22;57639;52.410;-1.966;2023-07-20T18:42:25;19.50;62.80
61591;DHT22;57639;52.410;-1.966;2023-07-20T18:45:34;19.50;62.80
61591;DHT22;57639;52.410;-1.966;2023-07-20T18:48:47;19.50;62.70
61591;DHT22;57639;52.410;-1.966;2023-07-20T18:51:54;19.50;62.60
61591;DHT22;57639;52.410;-1.966;2023-07-20T18:55:00;19.40;62.40
61591;DHT22;57639;52.410;-1.966;2023-07-20T18:58:06;19.40;62.50
61591;DHT22;57639;52.410;-1.966;2023-07-20T19:01:13;19.40;62.40
61591;DHT22;57639;52.410;-1.966;2023-07-20T19:04:22;19.40;62.40
61591;DHT22;57639;52.410;-1.966;2023-07-20T19:07:28;19.50;62.40
61591;DHT22;57639;52.410;-1.966;2023-07-20T19:10:34;19.40;62.30
61591;DHT22;57639;52.410;-1.966;2023-07-20T19:13:41;19.40;62.20
61591;DHT22;57639;52.410;-1.966;2023-07-20T19:16:47;19.40;62.00
61591;DHT22;57639;52.410;-1.966;2023-07-20T19:19:56;19.40;61.90
61591;DHT22;57639;52.410;-1.966;2023-07-20T19:23:02;19.40;61.80
61591;DHT22;57639;52.410;-1.966;2023-07-20T19:26:09;19.40;61.70
61591;DHT22;57639;52.410;-1.966;2023-07-20T19:29:16;19.40;61.80
61591;DHT22;57639;52.410;-1.966;2023-07-20T19:32:23;19.40;61.70
61591;DHT22;57639;52.410;-1.966;2023-07-20T19:35:32;19.40;61.70